sensor_id;sensor_type;location;lat;lon;timestamp;temperature;humidity
77727;SHT30;68312;53.502;10.030;2023-09-19T00:00:46;16.71;83.98
77727;SHT30;68312;53.502;10.030;2023-09-19T00:03:15;16.71;84.03
77727;SHT30;68312;53.502;10.030;2023-09-19T00:05:40;16.77;83.68
77727;SHT30;68312;53.502;10.030;2023-09-19T00:08:09;16.83;83.55
77727;SHT30;68312;53.502;10.030;2023-09-19T00:10:35;16.85;83.67
77727;SHT30;68312;53.502;10.030;2023-09-19T00:13:04;16.88;83.44
77727;SHT30;68312;53.502;10.030;2023-09-19T00:15:39;16.92;83.09
77727;SHT30;68312;53.502;10.030;2023-09-19T00:18:06;16.92;83.04
77727;SHT30;68312;53.502;10.030;2023-09-19T00:20:32;16.88;83.14
77727;SHT30;68312;53.502;10.030;2023-09-19T00:23:00;16.87;83.39
77727;SHT30;68312;53.502;10.030;2023-09-19T00:25:33;16.88;83.41
77727;SHT30;68312;53.502;10.030;2023-09-19T00:28:01;16.85;83.71
77727;SHT30;68312;53.502;10.030;2023-09-19T00:30:26;16.81;83.81
77727;SHT30;68312;53.502;10.030;2023-09-19T00:32:52;16.76;83.78
77727;SHT30;68312;53.502;10.030;2023-09-19T00:35:21;16.71;83.93
77727;SHT30;68312;53.502;10.030;2023-09-19T00:37:51;16.68;83.93
77727;SHT30;68312;53.502;10.030;2023-09-19T00:40:16;16.68;84.16
77727;SHT30;68312;53.502;10.030;2023-09-19T00:42:44;16.64;84.43
77727;SHT30;68312;53.502;10.030;2023-09-19T00:45:11;16.55;84.68
77727;SHT30;68312;53.502;10.030;2023-09-19T00:47:44;16.57;84.68
77727;SHT30;68312;53.502;10.030;2023-09-19T00:50:11;16.57;84.63
77727;SHT30;68312;53.502;10.030;2023-09-19T00:52:42;16.57;84.80
77727;SHT30;68312;53.502;10.030;2023-09-19T00:55:11;16.57;84.81
77727;SHT30;68312;53.502;10.030;2023-09-19T00:57:39;16.55;84.93
77727;SHT30;68312;53.502;10.030;2023-09-19T01:00:07;16.55;85.05
77727;SHT30;68312;53.502;10.030;2023-09-19T01:02:34;16.47;85.26
77727;SHT30;68312;53.502;10.030;2023-09-19T01:05:01;16.49;85.45
77727;SHT30;68312;53.502;10.030;2023-09-19T01:07:29;16.52;85.07
77727;SHT30;68312;53.502;10.030;2023-09-19T01:09:57;16.56;85.02
77727;SHT30;68312;53.502;10.030;2023-09-19T01:12:34;16.53;85.13
77727;SHT30;68312;53.502;10.030;2023-09-19T01:21:12;16.53;85.06
77727;SHT30;68312;53.502;10.030;2023-09-19T01:26:18;16.73;84.31
77727;SHT30;68312;53.502;10.030;2023-09-19T01:29:46;16.71;84.41
77727;SHT30;68312;53.502;10.030;2023-09-19T01:32:17;16.76;84.22
77727;SHT30;68312;53.502;10.030;2023-09-19T01:34:54;16.81;83.98
77727;SHT30;68312;53.502;10.030;2023-09-19T01:37:22;16.80;83.86
77727;SHT30;68312;53.502;10.030;2023-09-19T01:39:59;16.84;83.92
77727;SHT30;68312;53.502;10.030;2023-09-19T01:42:42;16.81;83.88
77727;SHT30;68312;53.502;10.030;2023-09-19T01:45:34;16.83;83.74
77727;SHT30;68312;53.502;10.030;2023-09-19T01:51:08;16.68;84.19
77727;SHT30;68312;53.502;10.030;2023-09-19T01:54:08;16.68;84.10
77727;SHT30;68312;53.502;10.030;2023-09-19T01:56:42;16.71;84.25
77727;SHT30;68312;53.502;10.030;2023-09-19T01:59:14;16.66;84.25
77727;SHT30;68312;53.502;10.030;2023-09-19T02:01:44;16.76;83.92
77727;SHT30;68312;53.502;10.030;2023-09-19T02:04:10;16.77;83.46
77727;SHT30;68312;53.502;10.030;2023-09-19T02:06:42;16.74;83.56
77727;SHT30;68312;53.502;10.030;2023-09-19T02:09:07;16.71;83.59
77727;SHT30;68312;53.502;10.030;2023-09-19T02:11:34;16.74;83.36
77727;SHT30;68312;53.502;10.030;2023-09-19T02:13:59;16.70;83.56
77727;SHT30;68312;53.502;10.030;2023-09-19T02:16:25;16.66;83.29
77727;SHT30;68312;53.502;10.030;2023-09-19T02:18:51;16.59;83.35
77727;SHT30;68312;53.502;10.030;2023-09-19T02:21:17;16.53;83.60
77727;SHT30;68312;53.502;10.030;2023-09-19T02:23:46;16.49;83.45
77727;SHT30;68312;53.502;10.030;2023-09-19T02:26:13;16.39;83.75
77727;SHT30;68312;53.502;10.030;2023-09-19T02:28:39;16.39;83.71
77727;SHT30;68312;53.502;10.030;2023-09-19T02:31:04;16.32;83.90
77727;SHT30;68312;53.502;10.030;2023-09-19T02:33:32;16.32;83.99
77727;SHT30;68312;53.502;10.030;2023-09-19T02:35:59;16.29;84.21
77727;SHT30;68312;53.502;10.030;2023-09-19T02:38:25;16.22;84.37
77727;SHT30;68312;53.502;10.030;2023-09-19T02:40:52;16.20;84.42
77727;SHT30;68312;53.502;10.030;2023-09-19T02:43:18;16.22;84.08
77727;SHT30;68312;53.502;10.030;2023-09-19T02:45:45;16.18;84.28
77727;SHT30;68312;53.502;10.030;2023-09-19T02:48:11;16.18;84.14
77727;SHT30;68312;53.502;10.030;2023-09-19T02:50:37;16.13;84.32
77727;SHT30;68312;53.502;10.030;2023-09-19T02:53:03;16.18;84.04
77727;SHT30;68312;53.502;10.030;2023-09-19T02:55:29;16.16;83.81
77727;SHT30;68312;53.502;10.030;2023-09-19T02:57:55;16.09;84.18
77727;SHT30;68312;53.502;10.030;2023-09-19T03:00:22;16.08;84.30
77727;SHT30;68312;53.502;10.030;2023-09-19T03:02:53;16.13;83.73
77727;SHT30;68312;53.502;10.030;2023-09-19T03:05:19;16.09;83.73
77727;SHT30;68312;53.502;10.030;2023-09-19T03:07:47;16.15;83.76
77727;SHT30;68312;53.502;10.030;2023-09-19T03:10:17;16.12;83.55
77727;SHT30;68312;53.502;10.030;2023-09-19T03:12:43;16.13;83.48
77727;SHT30;68312;53.502;10.030;2023-09-19T03:15:08;16.10;83.27
77727;SHT30;68312;53.502;10.030;2023-09-19T03:17:34;16.09;83.34
77727;SHT30;68312;53.502;10.030;2023-09-19T03:20:02;16.06;83.55
77727;SHT30;68312;53.502;10.030;2023-09-19T03:22:27;16.09;83.21
77727;SHT30;68312;53.502;10.030;2023-09-19T03:24:53;16.16;82.64
77727;SHT30;68312;53.502;10.030;2023-09-19T03:27:19;16.12;82.89
77727;SHT30;68312;53.502;10.030;2023-09-19T03:29:46;16.10;83.18
77727;SHT30;68312;53.502;10.030;2023-09-19T03:32:11;16.08;82.80
77727;SHT30;68312;53.502;10.030;2023-09-19T03:34:38;16.04;82.78
77727;SHT30;68312;53.502;10.030;2023-09-19T03:37:07;16.01;82.67
77727;SHT30;68312;53.502;10.030;2023-09-19T03:39:32;15.91;82.76
77727;SHT30;68312;53.502;10.030;2023-09-19T03:41:58;15.88;82.31
77727;SHT30;68312;53.502;10.030;2023-09-19T03:44:23;15.88;81.65
77727;SHT30;68312;53.502;10.030;2023-09-19T03:46:49;15.87;81.72
77727;SHT30;68312;53.502;10.030;2023-09-19T03:49:14;15.81;81.98
77727;SHT30;68312;53.502;10.030;2023-09-19T03:51:39;15.79;81.77
77727;SHT30;68312;53.502;10.030;2023-09-19T03:54:07;15.78;80.92
77727;SHT30;68312;53.502;10.030;2023-09-19T03:56:33;15.71;80.66
77727;SHT30;68312;53.502;10.030;2023-09-19T03:58:58;15.78;80.28
77727;SHT30;68312;53.502;10.030;2023-09-19T04:01:24;15.70;79.75
77727;SHT30;68312;53.502;10.030;2023-09-19T04:03:49;15.72;78.53
77727;SHT30;68312;53.502;10.030;2023-09-19T04:06:17;15.61;78.19
77727;SHT30;68312;53.502;10.030;2023-09-19T04:08:43;15.50;77.94
77727;SHT30;68312;53.502;10.030;2023-09-19T04:11:10;15.46;77.24
77727;SHT30;68312;53.502;10.030;2023-09-19T04:13:36;15.29;77.69
77727;SHT30;68312;53.502;10.030;2023-09-19T04:16:02;15.22;77.03
77727;SHT30;68312;53.502;10.030;2023-09-19T04:18:32;15.24;76.32
77727;SHT30;68312;53.502;10.030;2023-09-19T04:21:02;15.18;76.27
77727;SHT30;68312;53.502;10.030;2023-09-19T04:23:29;15.16;76.81
77727;SHT30;68312;53.502;10.030;2023-09-19T04:25:54;15.00;77.16
77727;SHT30;68312;53.502;10.030;2023-09-19T04:28:20;15.03;76.88
77727;SHT30;68312;53.502;10.030;2023-09-19T04:30:45;14.92;77.48
77727;SHT30;68312;53.502;10.030;2023-09-19T04:33:11;14.81;78.04
77727;SHT30;68312;53.502;10.030;2023-09-19T04:35:40;14.76;77.96
77727;SHT30;68312;53.502;10.030;2023-09-19T04:38:08;14.85;77.63
77727;SHT30;68312;53.502;10.030;2023-09-19T04:40:34;14.81;77.92
77727;SHT30;68312;53.502;10.030;2023-09-19T04:43:00;14.78;78.05
77727;SHT30;68312;53.502;10.030;2023-09-19T04:45:27;14.69;78.45
77727;SHT30;68312;53.502;10.030;2023-09-19T04:47:53;14.62;78.66
77727;SHT30;68312;53.502;10.030;2023-09-19T04:50:20;14.64;78.81
77727;SHT30;68312;53.502;10.030;2023-09-19T04:52:49;14.55;79.13
77727;SHT30;68312;53.502;10.030;2023-09-19T04:55:17;14.60;78.78
77727;SHT30;68312;53.502;10.030;2023-09-19T04:57:47;14.55;78.75
77727;SHT30;68312;53.502;10.030;2023-09-19T05:00:18;14.55;78.68
77727;SHT30;68312;53.502;10.030;2023-09-19T05:02:44;14.60;79.17
77727;SHT30;68312;53.502;10.030;2023-09-19T05:05:10;14.62;78.32
77727;SHT30;68312;53.502;10.030;2023-09-19T05:07:37;14.54;78.77
77727;SHT30;68312;53.502;10.030;2023-09-19T05:10:03;14.51;78.77
77727;SHT30;68312;53.502;10.030;2023-09-19T05:12:34;14.48;78.84
77727;SHT30;68312;53.502;10.030;2023-09-19T05:15:04;14.46;79.04
77727;SHT30;68312;53.502;10.030;2023-09-19T05:17:30;14.57;78.96
77727;SHT30;68312;53.502;10.030;2023-09-19T05:19:56;14.57;79.14
77727;SHT30;68312;53.502;10.030;2023-09-19T05:22:23;14.46;79.66
77727;SHT30;68312;53.502;10.030;2023-09-19T05:24:50;14.44;79.57
77727;SHT30;68312;53.502;10.030;2023-09-19T05:27:16;14.35;79.91
77727;SHT30;68312;53.502;10.030;2023-09-19T05:29:45;14.37;79.83
77727;SHT30;68312;53.502;10.030;2023-09-19T05:32:11;14.30;79.88
77727;SHT30;68312;53.502;10.030;2023-09-19T05:34:38;14.25;80.21
77727;SHT30;68312;53.502;10.030;2023-09-19T05:37:22;14.28;80.30
77727;SHT30;68312;53.502;10.030;2023-09-19T05:39:51;14.24;80.44
77727;SHT30;68312;53.502;10.030;2023-09-19T05:42:18;14.20;80.52
77727;SHT30;68312;53.502;10.030;2023-09-19T05:44:43;14.25;80.23
77727;SHT30;68312;53.502;10.030;2023-09-19T05:47:09;14.28;80.07
77727;SHT30;68312;53.502;10.030;2023-09-19T05:49:35;14.24;80.46
77727;SHT30;68312;53.502;10.030;2023-09-19T05:52:05;14.27;80.60
77727;SHT30;68312;53.502;10.030;2023-09-19T05:54:31;14.27;80.82
77727;SHT30;68312;53.502;10.030;2023-09-19T05:57:00;14.30;80.51
77727;SHT30;68312;53.502;10.030;2023-09-19T05:59:27;14.42;80.25
77727;SHT30;68312;53.502;10.030;2023-09-19T06:01:52;14.58;79.52
77727;SHT30;68312;53.502;10.030;2023-09-19T06:04:18;14.75;78.77
77727;SHT30;68312;53.502;10.030;2023-09-19T06:06:45;14.89;78.84
77727;SHT30;68312;53.502;10.030;2023-09-19T06:09:10;14.99;78.21
77727;SHT30;68312;53.502;10.030;2023-09-19T06:11:36;15.14;77.86
77727;SHT30;68312;53.502;10.030;2023-09-19T06:14:02;15.24;77.83
77727;SHT30;68312;53.502;10.030;2023-09-19T06:16:29;15.33;77.01
77727;SHT30;68312;53.502;10.030;2023-09-19T06:18:56;15.43;76.97
77727;SHT30;68312;53.502;10.030;2023-09-19T06:21:22;15.44;76.07
77727;SHT30;68312;53.502;10.030;2023-09-19T06:23:48;15.54;76.52
77727;SHT30;68312;53.502;10.030;2023-09-19T06:26:14;15.60;75.96
77727;SHT30;68312;53.502;10.030;2023-09-19T06:28:40;15.67;75.44
77727;SHT30;68312;53.502;10.030;2023-09-19T06:31:06;15.65;75.47
77727;SHT30;68312;53.502;10.030;2023-09-19T06:33:35;15.68;75.72
77727;SHT30;68312;53.502;10.030;2023-09-19T06:36:04;15.72;75.29
77727;SHT30;68312;53.502;10.030;2023-09-19T06:38:30;15.65;75.52
77727;SHT30;68312;53.502;10.030;2023-09-19T06:40:58;15.77;75.70
77727;SHT30;68312;53.502;10.030;2023-09-19T06:43:24;15.91;75.46
77727;SHT30;68312;53.502;10.030;2023-09-19T06:45:49;15.82;75.41
77727;SHT30;68312;53.502;10.030;2023-09-19T06:48:18;15.92;75.42
77727;SHT30;68312;53.502;10.030;2023-09-19T06:50:43;16.01;75.30
77727;SHT30;68312;53.502;10.030;2023-09-19T06:53:10;16.05;74.98
77727;SHT30;68312;53.502;10.030;2023-09-19T06:55:35;16.02;74.91
77727;SHT30;68312;53.502;10.030;2023-09-19T06:58:02;15.98;74.99
77727;SHT30;68312;53.502;10.030;2023-09-19T07:00:28;15.98;75.04
77727;SHT30;68312;53.502;10.030;2023-09-19T07:03:05;15.97;74.50
77727;SHT30;68312;53.502;10.030;2023-09-19T07:05:34;16.08;75.20
77727;SHT30;68312;53.502;10.030;2023-09-19T07:08:03;16.20;74.63
77727;SHT30;68312;53.502;10.030;2023-09-19T07:10:29;16.19;74.86
77727;SHT30;68312;53.502;10.030;2023-09-19T07:13:02;16.22;74.26
77727;SHT30;68312;53.502;10.030;2023-09-19T07:15:31;16.25;74.61
77727;SHT30;68312;53.502;10.030;2023-09-19T07:17:58;16.25;74.20
77727;SHT30;68312;53.502;10.030;2023-09-19T07:20:26;16.20;74.57
77727;SHT30;68312;53.502;10.030;2023-09-19T07:22:52;16.23;74.94
77727;SHT30;68312;53.502;10.030;2023-09-19T07:25:20;16.30;74.25
77727;SHT30;68312;53.502;10.030;2023-09-19T07:27:46;16.32;74.22
77727;SHT30;68312;53.502;10.030;2023-09-19T07:30:12;16.30;74.06
77727;SHT30;68312;53.502;10.030;2023-09-19T07:32:38;16.45;73.86
77727;SHT30;68312;53.502;10.030;2023-09-19T07:35:05;16.50;74.42
77727;SHT30;68312;53.502;10.030;2023-09-19T07:37:34;16.57;73.87
77727;SHT30;68312;53.502;10.030;2023-09-19T07:40:00;16.53;73.42
77727;SHT30;68312;53.502;10.030;2023-09-19T07:42:27;16.59;73.40
77727;SHT30;68312;53.502;10.030;2023-09-19T07:44:52;16.67;74.01
77727;SHT30;68312;53.502;10.030;2023-09-19T07:47:20;16.37;73.63
77727;SHT30;68312;53.502;10.030;2023-09-19T07:49:49;16.36;73.70
77727;SHT30;68312;53.502;10.030;2023-09-19T07:52:15;16.28;74.66
77727;SHT30;68312;53.502;10.030;2023-09-19T07:54:41;16.28;74.86
77727;SHT30;68312;53.502;10.030;2023-09-19T07:57:10;16.20;74.41
77727;SHT30;68312;53.502;10.030;2023-09-19T07:59:36;16.15;74.99
77727;SHT30;68312;53.502;10.030;2023-09-19T08:02:04;16.19;73.90
77727;SHT30;68312;53.502;10.030;2023-09-19T08:04:30;16.12;73.17
77727;SHT30;68312;53.502;10.030;2023-09-19T08:06:57;16.08;72.62
77727;SHT30;68312;53.502;10.030;2023-09-19T08:09:26;16.10;72.76
77727;SHT30;68312;53.502;10.030;2023-09-19T08:11:51;16.18;72.67
77727;SHT30;68312;53.502;10.030;2023-09-19T08:14:17;16.26;72.80
77727;SHT30;68312;53.502;10.030;2023-09-19T08:16:42;16.25;72.40
77727;SHT30;68312;53.502;10.030;2023-09-19T08:19:10;16.32;72.52
77727;SHT30;68312;53.502;10.030;2023-09-19T08:21:36;16.42;72.38
77727;SHT30;68312;53.502;10.030;2023-09-19T08:24:02;16.56;72.81
77727;SHT30;68312;53.502;10.030;2023-09-19T08:26:30;16.56;71.89
77727;SHT30;68312;53.502;10.030;2023-09-19T08:28:56;16.55;71.76
77727;SHT30;68312;53.502;10.030;2023-09-19T08:31:22;16.49;72.01
77727;SHT30;68312;53.502;10.030;2023-09-19T08:33:50;16.59;71.71
77727;SHT30;68312;53.502;10.030;2023-09-19T08:36:17;16.60;71.99
77727;SHT30;68312;53.502;10.030;2023-09-19T08:38:42;16.47;73.25
77727;SHT30;68312;53.502;10.030;2023-09-19T08:41:08;16.66;71.54
77727;SHT30;68312;53.502;10.030;2023-09-19T08:43:35;16.68;71.68
77727;SHT30;68312;53.502;10.030;2023-09-19T08:46:20;16.89;71.70
77727;SHT30;68312;53.502;10.030;2023-09-19T08:49:33;17.00;70.75
77727;SHT30;68312;53.502;10.030;2023-09-19T08:52:37;17.04;71.05
77727;SHT30;68312;53.502;10.030;2023-09-19T08:55:07;17.03;70.28
77727;SHT30;68312;53.502;10.030;2023-09-19T08:57:36;17.19;68.89
77727;SHT30;68312;53.502;10.030;2023-09-19T09:00:08;17.10;69.05
77727;SHT30;68312;53.502;10.030;2023-09-19T09:02:42;17.28;68.76
77727;SHT30;68312;53.502;10.030;2023-09-19T09:05:09;17.36;69.24
77727;SHT30;68312;53.502;10.030;2023-09-19T09:07:37;17.34;67.95
77727;SHT30;68312;53.502;10.030;2023-09-19T09:10:03;17.21;68.40
77727;SHT30;68312;53.502;10.030;2023-09-19T09:12:29;17.26;68.17
77727;SHT30;68312;53.502;10.030;2023-09-19T09:14:55;17.28;68.32
77727;SHT30;68312;53.502;10.030;2023-09-19T09:17:25;17.53;68.78
77727;SHT30;68312;53.502;10.030;2023-09-19T09:19:54;17.61;66.29
77727;SHT30;68312;53.502;10.030;2023-09-19T09:22:19;17.66;66.74
77727;SHT30;68312;53.502;10.030;2023-09-19T09:24:59;17.96;65.78
77727;SHT30;68312;53.502;10.030;2023-09-19T09:27:29;17.96;65.04
77727;SHT30;68312;53.502;10.030;2023-09-19T09:29:55;18.40;64.92
77727;SHT30;68312;53.502;10.030;2023-09-19T09:32:23;18.48;62.99
77727;SHT30;68312;53.502;10.030;2023-09-19T09:34:58;18.71;63.44
77727;SHT30;68312;53.502;10.030;2023-09-19T09:37:24;19.31;61.79
77727;SHT30;68312;53.502;10.030;2023-09-19T09:39:59;19.30;59.37
77727;SHT30;68312;53.502;10.030;2023-09-19T09:42:45;19.61;60.29
77727;SHT30;68312;53.502;10.030;2023-09-19T09:45:22;19.95;58.78
77727;SHT30;68312;53.502;10.030;2023-09-19T09:48:01;20.41;57.68
77727;SHT30;68312;53.502;10.030;2023-09-19T09:50:47;20.44;56.87
77727;SHT30;68312;53.502;10.030;2023-09-19T09:53:27;21.04;55.36
77727;SHT30;68312;53.502;10.030;2023-09-19T09:58:37;20.90;54.76
77727;SHT30;68312;53.502;10.030;2023-09-19T10:01:04;20.13;55.53
77727;SHT30;68312;53.502;10.030;2023-09-19T10:03:41;19.85;55.26
77727;SHT30;68312;53.502;10.030;2023-09-19T10:06:17;19.88;55.53
77727;SHT30;68312;53.502;10.030;2023-09-19T10:09:05;20.02;53.22
77727;SHT30;68312;53.502;10.030;2023-09-19T10:11:49;20.34;54.12
77727;SHT30;68312;53.502;10.030;2023-09-19T10:14:30;20.84;53.35
77727;SHT30;68312;53.502;10.030;2023-09-19T10:16:58;20.81;53.38
77727;SHT30;68312;53.502;10.030;2023-09-19T10:19:54;20.97;52.74
77727;SHT30;68312;53.502;10.030;2023-09-19T10:22:24;19.95;54.03
77727;SHT30;68312;53.502;10.030;2023-09-19T10:24:53;19.46;55.64
77727;SHT30;68312;53.502;10.030;2023-09-19T10:27:21;19.16;56.96
77727;SHT30;68312;53.502;10.030;2023-09-19T10:29:49;19.19;57.45
77727;SHT30;68312;53.502;10.030;2023-09-19T10:32:22;18.91;57.76
77727;SHT30;68312;53.502;10.030;2023-09-19T10:34:49;19.70;58.00
77727;SHT30;68312;53.502;10.030;2023-09-19T10:37:21;20.25;54.96
77727;SHT30;68312;53.502;10.030;2023-09-19T10:39:51;20.01;54.93
77727;SHT30;68312;53.502;10.030;2023-09-19T10:42:20;19.64;54.52
77727;SHT30;68312;53.502;10.030;2023-09-19T10:44:51;18.95;57.81
77727;SHT30;68312;53.502;10.030;2023-09-19T10:47:19;18.95;59.03
77727;SHT30;68312;53.502;10.030;2023-09-19T10:49:46;18.83;57.41
77727;SHT30;68312;53.502;10.030;2023-09-19T10:52:21;18.81;58.71
77727;SHT30;68312;53.502;10.030;2023-09-19T10:54:52;18.98;58.00
77727;SHT30;68312;53.502;10.030;2023-09-19T10:57:23;19.10;56.87
77727;SHT30;68312;53.502;10.030;2023-09-19T11:00:08;19.09;57.21
77727;SHT30;68312;53.502;10.030;2023-09-19T11:03:27;18.61;58.25
77727;SHT30;68312;53.502;10.030;2023-09-19T11:06:13;18.71;58.67
77727;SHT30;68312;53.502;10.030;2023-09-19T11:09:01;18.75;57.83
77727;SHT30;68312;53.502;10.030;2023-09-19T11:30:34;19.55;55.18
77727;SHT30;68312;53.502;10.030;2023-09-19T11:33:30;19.91;54.41
77727;SHT30;68312;53.502;10.030;2023-09-19T11:46:24;18.81;56.79
77727;SHT30;68312;53.502;10.030;2023-09-19T11:48:51;18.77;57.81
77727;SHT30;68312;53.502;10.030;2023-09-19T11:51:20;18.79;57.61
77727;SHT30;68312;53.502;10.030;2023-09-19T11:53:51;19.03;57.90
77727;SHT30;68312;53.502;10.030;2023-09-19T11:56:22;19.24;56.67
77727;SHT30;68312;53.502;10.030;2023-09-19T11:58:55;19.72;55.72
77727;SHT30;68312;53.502;10.030;2023-09-19T12:01:33;19.82;54.96
77727;SHT30;68312;53.502;10.030;2023-09-19T12:04:02;18.98;56.00
77727;SHT30;68312;53.502;10.030;2023-09-19T12:06:30;18.89;57.34
77727;SHT30;68312;53.502;10.030;2023-09-19T12:08:57;18.95;58.12
77727;SHT30;68312;53.502;10.030;2023-09-19T12:11:31;19.03;58.16
77727;SHT30;68312;53.502;10.030;2023-09-19T12:14:01;19.46;56.93
77727;SHT30;68312;53.502;10.030;2023-09-19T12:16:27;19.77;55.55
77727;SHT30;68312;53.502;10.030;2023-09-19T12:18:57;19.68;56.20
77727;SHT30;68312;53.502;10.030;2023-09-19T12:21:28;19.47;56.52
77727;SHT30;68312;53.502;10.030;2023-09-19T12:24:11;19.81;54.88
77727;SHT30;68312;53.502;10.030;2023-09-19T12:26:45;20.56;53.21
77727;SHT30;68312;53.502;10.030;2023-09-19T12:31:56;20.51;53.43
77727;SHT30;68312;53.502;10.030;2023-09-19T12:34:30;20.19;55.25
77727;SHT30;68312;53.502;10.030;2023-09-19T12:37:15;20.18;53.45
77727;SHT30;68312;53.502;10.030;2023-09-19T12:39:50;20.30;53.46
77727;SHT30;68312;53.502;10.030;2023-09-19T12:42:23;20.84;51.24
77727;SHT30;68312;53.502;10.030;2023-09-19T12:44:51;20.80;52.93
77727;SHT30;68312;53.502;10.030;2023-09-19T12:47:27;20.30;52.44
77727;SHT30;68312;53.502;10.030;2023-09-19T12:50:10;19.82;53.30
77727;SHT30;68312;53.502;10.030;2023-09-19T12:52:52;19.72;54.62
77727;SHT30;68312;53.502;10.030;2023-09-19T12:55:29;20.49;53.87
77727;SHT30;68312;53.502;10.030;2023-09-19T12:58:09;20.95;52.74
77727;SHT30;68312;53.502;10.030;2023-09-19T13:00:44;20.74;51.51
77727;SHT30;68312;53.502;10.030;2023-09-19T13:03:27;20.67;52.40
77727;SHT30;68312;53.502;10.030;2023-09-19T13:06:03;21.46;50.65
77727;SHT30;68312;53.502;10.030;2023-09-19T13:08:38;22.24;48.11
77727;SHT30;68312;53.502;10.030;2023-09-19T13:11:13;22.00;49.25
77727;SHT30;68312;53.502;10.030;2023-09-19T13:13:49;21.63;49.51
77727;SHT30;68312;53.502;10.030;2023-09-19T13:16:20;21.35;50.37
77727;SHT30;68312;53.502;10.030;2023-09-19T13:18:52;21.86;49.27
77727;SHT30;68312;53.502;10.030;2023-09-19T13:21:35;22.17;47.25
77727;SHT30;68312;53.502;10.030;2023-09-19T13:27:34;21.97;48.12
77727;SHT30;68312;53.502;10.030;2023-09-19T13:29:59;22.66;46.58
77727;SHT30;68312;53.502;10.030;2023-09-19T13:32:25;22.88;46.15
77727;SHT30;68312;53.502;10.030;2023-09-19T13:34:51;22.65;46.04
77727;SHT30;68312;53.502;10.030;2023-09-19T13:37:16;23.03;44.94
77727;SHT30;68312;53.502;10.030;2023-09-19T13:39:45;21.75;47.13
77727;SHT30;68312;53.502;10.030;2023-09-19T13:42:13;21.67;48.41
77727;SHT30;68312;53.502;10.030;2023-09-19T13:44:39;22.93;46.26
77727;SHT30;68312;53.502;10.030;2023-09-19T13:47:06;22.98;45.63
77727;SHT30;68312;53.502;10.030;2023-09-19T13:49:36;23.07;45.26
77727;SHT30;68312;53.502;10.030;2023-09-19T13:52:03;23.26;44.23
77727;SHT30;68312;53.502;10.030;2023-09-19T13:54:31;24.20;43.16
77727;SHT30;68312;53.502;10.030;2023-09-19T13:56:56;23.53;42.92
77727;SHT30;68312;53.502;10.030;2023-09-19T13:59:22;23.28;44.20
77727;SHT30;68312;53.502;10.030;2023-09-19T14:01:49;23.16;44.26
77727;SHT30;68312;53.502;10.030;2023-09-19T14:04:16;22.79;45.34
77727;SHT30;68312;53.502;10.030;2023-09-19T14:06:42;22.96;44.13
77727;SHT30;68312;53.502;10.030;2023-09-19T14:09:08;22.88;45.22
77727;SHT30;68312;53.502;10.030;2023-09-19T14:11:35;22.37;47.59
77727;SHT30;68312;53.502;10.030;2023-09-19T14:14:01;21.34;48.73
77727;SHT30;68312;53.502;10.030;2023-09-19T14:16:26;21.67;48.31
77727;SHT30;68312;53.502;10.030;2023-09-19T14:18:55;21.76;48.31
77727;SHT30;68312;53.502;10.030;2023-09-19T14:21:20;22.34;47.55
77727;SHT30;68312;53.502;10.030;2023-09-19T14:23:46;21.96;47.25
77727;SHT30;68312;53.502;10.030;2023-09-19T14:26:12;22.04;48.73
77727;SHT30;68312;53.502;10.030;2023-09-19T14:28:37;21.63;49.42
77727;SHT30;68312;53.502;10.030;2023-09-19T14:31:08;21.39;50.10
77727;SHT30;68312;53.502;10.030;2023-09-19T14:33:35;21.09;50.82
77727;SHT30;68312;53.502;10.030;2023-09-19T14:36:05;20.71;52.26
77727;SHT30;68312;53.502;10.030;2023-09-19T14:38:37;20.80;51.72
77727;SHT30;68312;53.502;10.030;2023-09-19T14:41:04;21.35;52.86
77727;SHT30;68312;53.502;10.030;2023-09-19T14:43:30;21.32;51.28
77727;SHT30;68312;53.502;10.030;2023-09-19T14:46:03;20.99;52.37
77727;SHT30;68312;53.502;10.030;2023-09-19T14:48:28;20.71;52.92
77727;SHT30;68312;53.502;10.030;2023-09-19T14:50:54;20.83;54.69
77727;SHT30;68312;53.502;10.030;2023-09-19T14:53:21;20.95;52.61
77727;SHT30;68312;53.502;10.030;2023-09-19T14:55:47;21.18;54.08
77727;SHT30;68312;53.502;10.030;2023-09-19T14:58:16;20.81;53.16
77727;SHT30;68312;53.502;10.030;2023-09-19T15:00:42;20.92;53.81
77727;SHT30;68312;53.502;10.030;2023-09-19T15:03:10;20.73;54.14
77727;SHT30;68312;53.502;10.030;2023-09-19T15:05:36;20.43;54.88
77727;SHT30;68312;53.502;10.030;2023-09-19T15:08:02;20.20;55.57
77727;SHT30;68312;53.502;10.030;2023-09-19T15:10:28;19.91;56.32
77727;SHT30;68312;53.502;10.030;2023-09-19T15:12:53;19.64;57.37
77727;SHT30;68312;53.502;10.030;2023-09-19T15:15:19;19.60;57.65
77727;SHT30;68312;53.502;10.030;2023-09-19T15:17:44;19.47;57.74
77727;SHT30;68312;53.502;10.030;2023-09-19T15:20:10;19.47;57.68
77727;SHT30;68312;53.502;10.030;2023-09-19T15:22:39;19.41;58.65
77727;SHT30;68312;53.502;10.030;2023-09-19T15:25:05;19.40;58.87
77727;SHT30;68312;53.502;10.030;2023-09-19T15:27:31;19.43;58.32
77727;SHT30;68312;53.502;10.030;2023-09-19T15:30:00;19.54;58.76
77727;SHT30;68312;53.502;10.030;2023-09-19T15:32:26;19.77;57.85
77727;SHT30;68312;53.502;10.030;2023-09-19T15:34:51;19.72;57.58
77727;SHT30;68312;53.502;10.030;2023-09-19T15:37:17;19.65;58.46
77727;SHT30;68312;53.502;10.030;2023-09-19T15:39:42;19.54;58.06
77727;SHT30;68312;53.502;10.030;2023-09-19T15:42:10;19.33;59.14
77727;SHT30;68312;53.502;10.030;2023-09-19T15:44:36;19.38;59.74
77727;SHT30;68312;53.502;10.030;2023-09-19T15:47:03;19.30;59.40
77727;SHT30;68312;53.502;10.030;2023-09-19T15:49:28;19.28;58.67
77727;SHT30;68312;53.502;10.030;2023-09-19T15:51:54;19.27;59.68
77727;SHT30;68312;53.502;10.030;2023-09-19T15:54:20;19.22;58.77
77727;SHT30;68312;53.502;10.030;2023-09-19T15:56:46;19.22;60.04
77727;SHT30;68312;53.502;10.030;2023-09-19T15:59:13;19.22;59.82
77727;SHT30;68312;53.502;10.030;2023-09-19T16:01:39;19.23;58.59
77727;SHT30;68312;53.502;10.030;2023-09-19T16:04:09;19.27;58.33
77727;SHT30;68312;53.502;10.030;2023-09-19T16:06:37;19.19;58.43
77727;SHT30;68312;53.502;10.030;2023-09-19T16:09:04;19.10;58.56
77727;SHT30;68312;53.502;10.030;2023-09-19T16:11:33;19.13;58.71
77727;SHT30;68312;53.502;10.030;2023-09-19T16:13:58;19.10;59.02
77727;SHT30;68312;53.502;10.030;2023-09-19T16:16:27;19.03;58.83
77727;SHT30;68312;53.502;10.030;2023-09-19T16:19:01;18.93;59.59